Station History

Weather Underground - logo

Station Historical Data
Daily Summary for January 5, 2018 Units:  English    Metric   Both
« Previous Day
Next Day »
Daily Weekly Monthly Yearly Custom
  High: Low: Average:
Temperature: 72.3 °F 49.7 °F 60.4 °F
Dew Point: 58.5 °F 48.3 °F 54.2 °F
Humidity: 97 % 59 % 81 %
Wind Speed: 4.0 mph 0.0 mph 0.5 mph
Wind Gust: 4.0 mph - -
Wind:- - West
Pressure: 30.24 in 30.14 in -
Precipitation: 0.00 in    
Historical Graphs
 
 
Tabular Data for January 5, 2018
Time Temperature Dew Point Pressure Wind Wind Speed Wind Gust Humidity Rainfall Rate (Hourly)
00:02 54.9 °F 52.9 °F 30.18 in Calm     93 % 0.00 in
00:07 54.6 °F 52.6 °F 30.18 in Calm     93 % 0.00 in
00:08 54.6 °F 52.6 °F 30.18 in Calm     93 % 0.00 in
00:13 54.2 °F 52.2 °F 30.18 in Calm     93 % 0.00 in
00:18 54.0 °F 52.3 °F 30.17 in Calm     94 % 0.00 in
00:20 53.9 °F 52.2 °F 30.17 in Calm     94 % 0.00 in
00:25 53.7 °F 52.0 °F 30.17 in Calm     94 % 0.00 in
00:27 53.5 °F 51.8 °F 30.17 in Calm     94 % 0.00 in
00:32 53.2 °F 51.5 °F 30.17 in Calm     94 % 0.00 in
00:33 53.2 °F 51.5 °F 30.17 in Calm     94 % 0.00 in
00:38 52.9 °F 51.2 °F 30.17 in Calm     94 % 0.00 in
00:40 52.8 °F 51.1 °F 30.17 in Calm     94 % 0.00 in
00:42 52.7 °F 51.0 °F 30.17 in Calm     94 % 0.00 in
00:47 52.5 °F 50.8 °F 30.16 in Calm     94 % 0.00 in
00:52 52.0 °F 50.3 °F 30.17 in Calm     94 % 0.00 in
00:54 51.9 °F 50.2 °F 30.16 in Calm     94 % 0.00 in
00:59 51.8 °F 50.4 °F 30.16 in Calm     95 % 0.00 in
01:00 51.7 °F 50.3 °F 30.16 in Calm     95 % 0.00 in
01:05 51.6 °F 50.2 °F 30.16 in Calm     95 % 0.00 in
01:08 51.5 °F 50.1 °F 30.16 in Calm     95 % 0.00 in
01:13 51.3 °F 49.9 °F 30.16 in Calm     95 % 0.00 in
01:14 51.2 °F 49.8 °F 30.16 in Calm     95 % 0.00 in
01:19 51.2 °F 49.8 °F 30.16 in Calm     95 % 0.00 in
01:22 51.2 °F 49.8 °F 30.16 in Calm     95 % 0.00 in
01:27 50.9 °F 49.5 °F 30.16 in Calm     95 % 0.00 in
01:30 51.0 °F 49.6 °F 30.16 in Calm     95 % 0.00 in
01:35 51.2 °F 50.1 °F 30.16 in Calm     96 % 0.00 in
01:41 51.2 °F 50.1 °F 30.16 in Calm     96 % 0.00 in
01:42 51.2 °F 50.1 °F 30.16 in Calm     96 % 0.00 in
01:47 51.2 °F 50.1 °F 30.16 in Calm     96 % 0.00 in
01:50 51.2 °F 50.1 °F 30.16 in Calm     96 % 0.00 in
01:55 51.3 °F 50.2 °F 30.16 in Calm     96 % 0.00 in
01:56 51.3 °F 50.2 °F 30.16 in Calm     96 % 0.00 in
01:57 51.3 °F 50.2 °F 30.16 in Calm     96 % 0.00 in
02:02 51.3 °F 50.2 °F 30.16 in Calm     96 % 0.00 in
02:04 51.2 °F 50.1 °F 30.16 in Calm     96 % 0.00 in
02:14 51.6 °F 50.5 °F 30.16 in Calm     96 % 0.00 in
02:19 51.7 °F 50.6 °F 30.17 in Calm     96 % 0.00 in
02:23 51.7 °F 50.6 °F 30.16 in Calm     96 % 0.00 in
02:28 51.4 °F 50.3 °F 30.16 in Calm     96 % 0.00 in
02:29 51.3 °F 50.2 °F 30.16 in Calm     96 % 0.00 in
02:34 51.2 °F 50.1 °F 30.17 in Calm     96 % 0.00 in
02:40 51.0 °F 49.9 °F 30.17 in Calm     96 % 0.00 in
02:44 51.0 °F 49.9 °F 30.17 in Calm     96 % 0.00 in
02:47 51.2 °F 50.1 °F 30.17 in Calm     96 % 0.00 in
02:52 51.4 °F 50.3 °F 30.17 in Calm     96 % 0.00 in
02:56 51.6 °F 50.5 °F 30.17 in Calm     96 % 0.00 in
03:01 51.8 °F 50.7 °F 30.17 in Calm     96 % 0.00 in
03:04 52.0 °F 51.2 °F 30.17 in Calm     97 % 0.00 in
03:09 52.3 °F 51.5 °F 30.17 in Calm     97 % 0.00 in
03:10 52.3 °F 51.5 °F 30.17 in Calm     97 % 0.00 in
03:15 52.5 °F 51.7 °F 30.17 in Calm     97 % 0.00 in
03:18 52.6 °F 51.8 °F 30.17 in Calm     97 % 0.00 in
03:23 52.5 °F 51.7 °F 30.17 in Calm     97 % 0.00 in
03:24 52.4 °F 51.6 °F 30.17 in Calm     97 % 0.00 in
03:29 52.7 °F 51.9 °F 30.17 in Calm     97 % 0.00 in
03:34 52.6 °F 51.5 °F 30.17 in Calm     96 % 0.00 in
03:39 52.4 °F 51.3 °F 30.17 in Calm     96 % 0.00 in
03:46 52.0 °F 50.9 °F 30.17 in Calm     96 % 0.00 in
03:49 52.0 °F 50.9 °F 30.17 in Calm     96 % 0.00 in
03:55 51.8 °F 50.7 °F 30.17 in Calm     96 % 0.00 in
03:59 51.7 °F 50.6 °F 30.17 in Calm     96 % 0.00 in
04:04 51.7 °F 50.6 °F 30.17 in Calm     96 % 0.00 in
04:06 51.7 °F 50.6 °F 30.17 in Calm     96 % 0.00 in
04:07 51.8 °F 50.7 °F 30.17 in Calm     96 % 0.00 in
04:12 51.8 °F 50.7 °F 30.16 in Calm     96 % 0.00 in
04:17 51.4 °F 50.3 °F 30.16 in Calm     96 % 0.00 in
04:22 51.4 °F 50.3 °F 30.16 in Calm     96 % 0.00 in
04:27 51.0 °F 49.6 °F 30.16 in Calm     95 % 0.00 in
04:28 51.0 °F 49.6 °F 30.16 in Calm     95 % 0.00 in
04:33 50.6 °F 49.2 °F 30.16 in Calm     95 % 0.00 in
04:35 50.5 °F 49.1 °F 30.16 in Calm     95 % 0.00 in
04:40 50.3 °F 48.9 °F 30.16 in Calm     95 % 0.00 in
04:46 50.2 °F 48.8 °F 30.16 in Calm     95 % 0.00 in
04:51 50.0 °F 48.6 °F 30.16 in Calm     95 % 0.00 in
04:53 49.9 °F 48.5 °F 30.16 in Calm     95 % 0.00 in
04:58 49.7 °F 48.3 °F 30.16 in Calm     95 % 0.00 in
04:59 49.7 °F 48.3 °F 30.16 in Calm     95 % 0.00 in
05:04 49.7 °F 48.6 °F 30.16 in Calm     96 % 0.00 in
05:09 49.7 °F 48.6 °F 30.16 in Calm     96 % 0.00 in
05:10 49.7 °F 48.6 °F 30.16 in Calm     96 % 0.00 in
05:15 49.9 °F 48.8 °F 30.17 in Calm     96 % 0.00 in
05:20 50.3 °F 49.2 °F 30.17 in Calm     96 % 0.00 in
05:25 50.5 °F 49.4 °F 30.17 in Calm     96 % 0.00 in
05:30 50.7 °F 49.6 °F 30.17 in Calm     96 % 0.00 in
05:35 50.9 °F 49.8 °F 30.17 in Calm     96 % 0.00 in
05:37 50.9 °F 49.8 °F 30.17 in Calm     96 % 0.00 in
05:42 51.0 °F 49.9 °F 30.18 in Calm     96 % 0.00 in
05:47 51.1 °F 50.0 °F 30.17 in Calm     96 % 0.00 in
05:52 51.1 °F 50.0 °F 30.17 in Calm     96 % 0.00 in
05:57 51.2 °F 50.1 °F 30.18 in Calm     96 % 0.00 in
06:02 51.2 °F 50.1 °F 30.18 in Calm     96 % 0.00 in
06:03 51.2 °F 50.1 °F 30.18 in Calm     96 % 0.00 in
06:08 51.2 °F 50.1 °F 30.18 in Calm     96 % 0.00 in
06:13 51.3 °F 50.2 °F 30.18 in Calm     96 % 0.00 in
06:18 51.3 °F 50.2 °F 30.18 in Calm     96 % 0.00 in
06:23 51.5 °F 50.4 °F 30.18 in Calm     96 % 0.00 in
06:28 51.5 °F 50.4 °F 30.18 in Calm     96 % 0.00 in
06:33 51.6 °F 50.5 °F 30.18 in Calm     96 % 0.00 in
06:39 51.7 °F 50.6 °F 30.18 in Calm     96 % 0.00 in
06:44 51.8 °F 50.7 °F 30.18 in Calm     96 % 0.00 in
06:49 51.8 °F 50.4 °F 30.18 in Calm     95 % 0.00 in
06:52 51.9 °F 50.5 °F 30.18 in Calm     95 % 0.00 in
06:58 52.0 °F 50.3 °F 30.19 in Calm     94 % 0.00 in
07:01 52.1 °F 50.4 °F 30.19 in Calm     94 % 0.00 in
07:06 52.2 °F 50.2 °F 30.19 in Calm     93 % 0.00 in
07:08 52.2 °F 50.2 °F 30.20 in Calm     93 % 0.00 in
07:13 52.1 °F 49.8 °F 30.20 in Calm     92 % 0.00 in
07:18 51.8 °F 49.5 °F 30.19 in Calm     92 % 0.00 in
07:20 51.7 °F 49.5 °F 30.19 in Calm     92 % 0.00 in
07:25 51.4 °F 49.2 °F 30.19 in Calm     92 % 0.00 in
07:30 51.2 °F 49.2 °F 30.19 in Calm     93 % 0.00 in
07:34 51.2 °F 49.2 °F 30.19 in Calm     93 % 0.00 in
07:39 51.2 °F 49.5 °F 30.19 in Calm     94 % 0.00 in
07:42 51.4 °F 49.7 °F 30.19 in Calm     94 % 0.00 in
07:47 51.8 °F 50.4 °F 30.20 in Calm     95 % 0.00 in
07:48 51.8 °F 50.4 °F 30.20 in Calm     95 % 0.00 in
07:51 52.0 °F 50.6 °F 30.20 in Calm     95 % 0.00 in
07:55 52.2 °F 50.8 °F 30.21 in Calm     95 % 0.00 in
08:02 52.6 °F 50.9 °F 30.21 in Calm     94 % 0.00 in
08:07 52.8 °F 51.1 °F 30.21 in Calm     94 % 0.00 in
08:13 53.4 °F 51.7 °F 30.22 in Calm     94 % 0.00 in
08:18 54.4 °F 52.7 °F 30.22 in Calm     94 % 0.00 in
08:21 55.6 °F 54.2 °F 30.22 in Calm     95 % 0.00 in
08:27 56.9 °F 54.9 °F 30.23 in Calm     93 % 0.00 in
08:30 57.4 °F 55.1 °F 30.22 in Calm     92 % 0.00 in
08:35 57.9 °F 55.0 °F 30.23 in Calm     90 % 0.00 in
08:40 58.1 °F 54.9 °F 30.23 in Calm     89 % 0.00 in
08:43 58.2 °F 55.0 °F 30.23 in Calm     89 % 0.00 in
08:44 58.2 °F 55.3 °F 30.23 in Calm     90 % 0.00 in
08:49 58.3 °F 55.1 °F 30.23 in Calm     89 % 0.00 in
08:54 58.4 °F 54.2 °F 30.23 in Calm     86 % 0.00 in
09:02 58.7 °F 53.9 °F 30.23 in Calm     84 % 0.00 in
09:07 58.9 °F 53.1 °F 30.23 in Calm     81 % 0.00 in
09:10 59.0 °F 52.8 °F 30.23 in Calm     80 % 0.00 in
09:15 59.4 °F 52.9 °F 30.23 in Calm     79 % 0.00 in
09:16 59.6 °F 53.1 °F 30.23 in Calm     79 % 0.00 in
09:20 60.1 °F 53.2 °F 30.23 in SE 1.2 mph   78 % 0.00 in
09:21 60.3 °F 53.4 °F 30.23 in Calm     78 % 0.00 in
09:27 60.7 °F 53.8 °F 30.23 in Calm     78 % 0.00 in
09:30 60.9 °F 54.3 °F 30.23 in ESE 1.2 mph   79 % 0.00 in
09:33 61.2 °F 54.3 °F 30.23 in ESE 1.2 mph   78 % 0.00 in
09:38 61.6 °F 54.3 °F 30.23 in Calm     77 % 0.00 in
09:43 62.3 °F 53.9 °F 30.24 in ESE 1.2 mph   74 % 0.00 in
09:46 62.6 °F 53.4 °F 30.24 in ESE 1.2 mph 1.2 mph 72 % 0.00 in
09:51 63.1 °F 53.9 °F 30.24 in SE 1.2 mph 1.2 mph 72 % 0.00 in
09:55 63.5 °F 54.3 °F 30.24 in Calm   0.1 mph 72 % 0.00 in
10:01 63.8 °F 54.2 °F 30.24 in Calm     71 % 0.00 in
10:02 64.0 °F 54.4 °F 30.24 in Calm     71 % 0.00 in
10:08 64.4 °F 54.8 °F 30.23 in Calm     71 % 0.00 in
10:13 64.7 °F 54.7 °F 30.23 in Calm     70 % 0.00 in
10:16 64.9 °F 54.5 °F 30.24 in Calm     69 % 0.00 in
10:20 65.0 °F 54.2 °F 30.24 in Calm     68 % 0.00 in
10:25 65.2 °F 54.4 °F 30.24 in Calm     68 % 0.00 in
10:30 65.3 °F 54.5 °F 30.23 in SW 1.2 mph 1.2 mph 68 % 0.00 in
10:34 65.6 °F 55.2 °F 30.23 in Calm     69 % 0.00 in
10:36 65.7 °F 54.8 °F 30.23 in SW 1.2 mph   68 % 0.00 in
10:41 66.1 °F 55.6 °F 30.23 in Calm     69 % 0.00 in
10:45 66.5 °F 56.0 °F 30.23 in Calm     69 % 0.00 in
10:50 66.9 °F 56.4 °F 30.23 in Calm     69 % 0.00 in
10:54 67.3 °F 56.8 °F 30.23 in WNW 1.2 mph 1.2 mph 69 % 0.00 in
10:59 67.5 °F 56.6 °F 30.22 in NW 1.2 mph 1.2 mph 68 % 0.00 in
11:04 67.8 °F 56.4 °F 30.22 in NNW 1.2 mph 1.2 mph 67 % 0.00 in
11:07 67.9 °F 57.4 °F 30.22 in Calm     69 % 0.00 in
11:12 68.2 °F 57.6 °F 30.22 in WSW 1.2 mph 1.2 mph 69 % 0.00 in
11:14 68.2 °F 57.2 °F 30.22 in WNW 2.3 mph 2.3 mph 68 % 0.00 in
11:18 68.3 °F 57.3 °F 30.21 in NW 1.2 mph   68 % 0.00 in
11:19 68.3 °F 57.3 °F 30.21 in NW 1.2 mph 1.2 mph 68 % 0.00 in
11:24 68.9 °F 57.9 °F 30.21 in South 1.2 mph 1.2 mph 68 % 0.00 in
11:30 69.4 °F 58.0 °F 30.21 in NW 2.3 mph 2.3 mph 67 % 0.00 in
11:33 69.2 °F 58.2 °F 30.21 in NNE 2.3 mph 2.3 mph 68 % 0.00 in
11:39 69.5 °F 58.5 °F 30.20 in Calm     68 % 0.00 in
11:44 69.6 °F 58.2 °F 30.20 in East 2.0 mph 2.0 mph 67 % 0.00 in
11:46 69.7 °F 58.3 °F 30.20 in West 1.2 mph 1.2 mph 67 % 0.00 in
11:51 69.8 °F 57.9 °F 30.20 in NW 2.3 mph 2.3 mph 66 % 0.00 in
11:55 69.9 °F 57.6 °F 30.20 in NW 2.3 mph 2.3 mph 65 % 0.00 in
12:00 70.1 °F 58.2 °F 30.20 in NW 2.3 mph 2.3 mph 66 % 0.00 in
12:05 70.2 °F 57.4 °F 30.20 in WNW 3.0 mph 3.0 mph 64 % 0.00 in
12:10 70.3 °F 58.0 °F 30.20 in NW 3.5 mph 3.5 mph 65 % 0.00 in
12:13 70.4 °F 57.6 °F 30.19 in WNW 3.5 mph 3.5 mph 64 % 0.00 in
12:18 70.4 °F 57.6 °F 30.19 in NW 1.2 mph 1.2 mph 64 % 0.00 in
12:23 70.5 °F 58.2 °F 30.19 in NW 1.2 mph 1.2 mph 65 % 0.00 in
12:24 70.5 °F 58.2 °F 30.19 in NW 2.0 mph 2.0 mph 65 % 0.00 in
12:29 70.9 °F 57.7 °F 30.19 in NW 2.3 mph 2.3 mph 63 % 0.00 in
12:30 70.9 °F 57.7 °F 30.19 in NW 3.0 mph 3.0 mph 63 % 0.00 in
12:32 70.9 °F 57.7 °F 30.19 in NNW 2.3 mph 2.3 mph 63 % 0.00 in
12:35 70.9 °F 57.7 °F 30.18 in WNW 1.2 mph 1.2 mph 63 % 0.00 in
12:40 70.9 °F 57.2 °F 30.18 in NW 3.5 mph 3.5 mph 62 % 0.00 in
12:45 70.9 °F 57.2 °F 30.18 in NW 3.5 mph 3.5 mph 62 % 0.00 in
12:50 70.9 °F 57.2 °F 30.18 in WNW 2.3 mph 2.3 mph 62 % 0.00 in
12:55 71.0 °F 57.8 °F 30.18 in North 1.0 mph 1.0 mph 63 % 0.00 in
12:59 71.2 °F 57.5 °F 30.18 in NNW 3.5 mph 3.5 mph 62 % 0.00 in
13:00 71.3 °F 57.6 °F 30.18 in WNW 2.3 mph 2.3 mph 62 % 0.00 in
13:05 71.3 °F 57.2 °F 30.17 in North 1.0 mph 1.0 mph 61 % 0.00 in
13:07 71.4 °F 57.2 °F 30.18 in NNW 3.5 mph 3.5 mph 61 % 0.00 in
13:11 71.5 °F 57.3 °F 30.17 in NNW 2.3 mph 2.3 mph 61 % 0.00 in
13:16 71.7 °F 57.1 °F 30.17 in SW 1.2 mph   60 % 0.00 in
13:18 71.8 °F 57.6 °F 30.17 in Calm     61 % 0.00 in
13:23 72.2 °F 58.0 °F 30.17 in South 2.3 mph 2.3 mph 61 % 0.00 in
13:25 72.3 °F 57.6 °F 30.17 in WSW 3.5 mph 3.5 mph 60 % 0.00 in
13:30 72.1 °F 57.0 °F 30.16 in West 3.5 mph 3.5 mph 59 % 0.00 in
13:35 71.9 °F 57.3 °F 30.16 in Calm     60 % 0.00 in
13:36 71.9 °F 57.3 °F 30.16 in WNW 2.0 mph 2.0 mph 60 % 0.00 in
13:40 71.9 °F 57.3 °F 30.16 in NW 2.3 mph 2.3 mph 60 % 0.00 in
13:41 71.9 °F 57.7 °F 30.16 in WNW 3.5 mph 3.5 mph 61 % 0.00 in
13:46 71.8 °F 57.2 °F 30.16 in NW 2.3 mph 2.3 mph 60 % 0.00 in
13:48 71.7 °F 57.5 °F 30.16 in WNW 1.2 mph 1.2 mph 61 % 0.00 in
13:53 71.8 °F 57.6 °F 30.16 in Calm     61 % 0.00 in
13:54 71.8 °F 57.6 °F 30.16 in NW 2.3 mph 2.3 mph 61 % 0.00 in
13:59 72.0 °F 57.4 °F 30.15 in WNW 3.5 mph 3.5 mph 60 % 0.00 in
14:04 72.0 °F 57.8 °F 30.15 in NW 2.3 mph 2.3 mph 61 % 0.00 in
14:06 72.0 °F 57.4 °F 30.15 in WNW 3.5 mph 3.5 mph 60 % 0.00 in
14:10 71.9 °F 57.3 °F 30.15 in NW 3.0 mph 3.0 mph 60 % 0.00 in
14:11 71.9 °F 57.7 °F 30.15 in NW 3.5 mph 3.5 mph 61 % 0.00 in
14:16 71.6 °F 57.4 °F 30.15 in NW 4.0 mph 4.0 mph 61 % 0.00 in
14:19 71.5 °F 57.8 °F 30.15 in NW 1.2 mph 1.2 mph 62 % 0.00 in
14:24 71.7 °F 58.0 °F 30.15 in NW 2.3 mph 2.3 mph 62 % 0.00 in
14:26 71.7 °F 57.5 °F 30.15 in ENE 1.2 mph   61 % 0.00 in
14:31 71.7 °F 58.0 °F 30.15 in WNW 3.5 mph 3.5 mph 62 % 0.00 in
14:33 71.7 °F 58.0 °F 30.15 in West 2.3 mph 2.3 mph 62 % 0.00 in
14:38 71.7 °F 58.0 °F 30.15 in WNW 1.2 mph 1.2 mph 62 % 0.00 in
14:44 71.6 °F 57.9 °F 30.15 in NW 3.0 mph 3.0 mph 62 % 0.00 in
14:45 71.6 °F 57.9 °F 30.15 in NW 3.5 mph 3.5 mph 62 % 0.00 in
14:50 71.6 °F 57.9 °F 30.14 in NNW 2.3 mph 2.3 mph 62 % 0.00 in
14:53 71.5 °F 57.8 °F 30.15 in NW 1.2 mph 1.2 mph 62 % 0.00 in
14:58 71.4 °F 58.1 °F 30.15 in NW 1.2 mph 1.2 mph 63 % 0.00 in
15:03 71.4 °F 58.1 °F 30.15 in NW 1.2 mph 1.2 mph 63 % 0.00 in
15:04 71.4 °F 58.1 °F 30.15 in NW 2.0 mph 2.0 mph 63 % 0.00 in
15:05 71.4 °F 58.1 °F 30.15 in NW 2.3 mph 2.3 mph 63 % 0.00 in
15:10 71.3 °F 58.1 °F 30.15 in WNW 1.2 mph 1.2 mph 63 % 0.00 in
15:11 71.2 °F 58.0 °F 30.15 in WSW 2.3 mph 2.3 mph 63 % 0.00 in
15:15 71.1 °F 57.9 °F 30.15 in NW 1.2 mph 1.2 mph 63 % 0.00 in
15:21 71.0 °F 57.8 °F 30.15 in West 2.3 mph 2.3 mph 63 % 0.00 in
15:26 70.9 °F 57.7 °F 30.15 in NW 1.2 mph 1.2 mph 63 % 0.00 in
15:31 70.6 °F 57.8 °F 30.15 in NW 1.2 mph 1.2 mph 64 % 0.00 in
15:33 70.6 °F 57.8 °F 30.15 in NW 1.2 mph 1.2 mph 64 % 0.00 in
15:36 70.5 °F 57.7 °F 30.16 in WNW 3.5 mph 3.5 mph 64 % 0.00 in
15:41 70.5 °F 57.7 °F 30.15 in WNW 1.2 mph 1.2 mph 64 % 0.00 in
15:46 70.4 °F 58.1 °F 30.16 in NW 1.2 mph   65 % 0.00 in
15:49 70.4 °F 58.1 °F 30.16 in NW 1.0 mph 1.0 mph 65 % 0.00 in
15:54 70.4 °F 58.1 °F 30.16 in NW 2.3 mph 2.3 mph 65 % 0.00 in
15:56 70.5 °F 57.7 °F 30.15 in NW 3.5 mph 3.5 mph 64 % 0.00 in
16:01 70.3 °F 58.0 °F 30.16 in Calm     65 % 0.00 in
16:06 70.0 °F 57.7 °F 30.16 in WNW 1.2 mph 1.2 mph 65 % 0.00 in
16:08 69.9 °F 58.0 °F 30.16 in Calm     66 % 0.00 in
16:13 69.6 °F 57.7 °F 30.16 in NW 1.2 mph 1.2 mph 66 % 0.00 in
16:14 69.6 °F 57.7 °F 30.16 in NW 1.2 mph   66 % 0.00 in
16:19 69.2 °F 57.4 °F 30.16 in Calm     66 % 0.00 in
16:20 69.1 °F 57.7 °F 30.16 in Calm     67 % 0.00 in
16:25 68.7 °F 57.3 °F 30.16 in Calm     67 % 0.00 in
16:26 68.7 °F 57.3 °F 30.16 in Calm     67 % 0.00 in
16:31 68.2 °F 57.2 °F 30.16 in Calm     68 % 0.00 in
16:36 67.9 °F 57.4 °F 30.16 in Calm     69 % 0.00 in
16:41 67.6 °F 57.1 °F 30.16 in Calm     69 % 0.00 in
16:43 67.5 °F 57.0 °F 30.16 in Calm     69 % 0.00 in
16:48 67.2 °F 57.1 °F 30.16 in Calm     70 % 0.00 in
16:51 67.1 °F 57.0 °F 30.16 in Calm     70 % 0.00 in
16:56 66.8 °F 57.1 °F 30.16 in Calm     71 % 0.00 in
16:59 66.6 °F 56.9 °F 30.16 in Calm     71 % 0.00 in
17:04 66.2 °F 56.9 °F 30.16 in Calm     72 % 0.00 in
17:08 66.0 °F 56.7 °F 30.16 in Calm     72 % 0.00 in
17:13 65.7 °F 56.8 °F 30.17 in Calm     73 % 0.00 in
17:18 65.4 °F 56.5 °F 30.16 in Calm     73 % 0.00 in
17:20 65.3 °F 56.8 °F 30.16 in Calm     74 % 0.00 in
17:23 65.1 °F 56.6 °F 30.16 in Calm     74 % 0.00 in
17:26 64.9 °F 56.8 °F 30.16 in Calm     75 % 0.00 in
17:32 64.6 °F 56.5 °F 30.16 in Calm     75 % 0.00 in
17:38 64.4 °F 56.3 °F 30.16 in Calm     75 % 0.00 in
17:43 64.2 °F 56.8 °F 30.16 in Calm     77 % 0.00 in
17:45 64.1 °F 57.1 °F 30.17 in Calm     78 % 0.00 in
17:50 63.9 °F 56.9 °F 30.17 in Calm     78 % 0.00 in
17:55 63.5 °F 56.5 °F 30.16 in Calm     78 % 0.00 in
18:00 63.3 °F 56.7 °F 30.17 in Calm     79 % 0.00 in
18:05 63.1 °F 56.8 °F 30.17 in Calm     80 % 0.00 in
18:10 62.8 °F 56.2 °F 30.18 in Calm     79 % 0.00 in
18:15 62.6 °F 56.3 °F 30.17 in Calm     80 % 0.00 in
18:20 62.6 °F 56.3 °F 30.17 in Calm     80 % 0.00 in
18:25 62.4 °F 56.1 °F 30.17 in Calm     80 % 0.00 in
18:30 62.3 °F 56.4 °F 30.17 in Calm     81 % 0.00 in
18:35 62.1 °F 56.2 °F 30.17 in Calm     81 % 0.00 in
18:40 61.8 °F 56.2 °F 30.17 in Calm     82 % 0.00 in
18:44 62.0 °F 56.1 °F 30.17 in Calm     81 % 0.00 in
18:49 62.5 °F 56.2 °F 30.17 in Calm     80 % 0.00 in
18:54 62.7 °F 56.1 °F 30.17 in Calm     79 % 0.00 in
18:59 62.5 °F 55.9 °F 30.16 in Calm     79 % 0.00 in
19:04 62.1 °F 55.9 °F 30.16 in Calm     80 % 0.00 in
19:09 62.0 °F 55.8 °F 30.16 in Calm     80 % 0.00 in
19:14 61.8 °F 55.6 °F 30.15 in Calm     80 % 0.00 in
19:19 61.6 °F 55.7 °F 30.14 in Calm     81 % 0.00 in
19:25 61.6 °F 55.7 °F 30.14 in Calm     81 % 0.00 in
19:30 61.7 °F 55.8 °F 30.14 in Calm     81 % 0.00 in
19:32 61.9 °F 56.0 °F 30.14 in Calm     81 % 0.00 in
19:37 62.8 °F 56.2 °F 30.14 in Calm   0.1 mph 79 % 0.00 in
19:42 63.3 °F 56.3 °F 30.14 in Calm   0.1 mph 78 % 0.00 in
19:47 63.5 °F 56.2 °F 30.14 in Calm     77 % 0.00 in
19:52 63.3 °F 56.0 °F 30.14 in Calm     77 % 0.00 in
19:56 62.7 °F 55.7 °F 30.14 in Calm     78 % 0.00 in
20:01 62.1 °F 55.9 °F 30.14 in WNW 1.2 mph   80 % 0.00 in
20:03 61.9 °F 55.7 °F 30.14 in WNW 1.2 mph   80 % 0.00 in
20:09 61.5 °F 55.6 °F 30.14 in Calm     81 % 0.00 in
20:12 61.3 °F 55.4 °F 30.14 in Calm     81 % 0.00 in
20:17 60.9 °F 55.4 °F 30.14 in Calm     82 % 0.00 in
20:22 60.6 °F 55.4 °F 30.14 in Calm     83 % 0.00 in
20:27 60.2 °F 55.3 °F 30.14 in Calm     84 % 0.00 in
20:32 60.0 °F 55.2 °F 30.14 in Calm     84 % 0.00 in
20:38 59.7 °F 54.9 °F 30.15 in Calm     84 % 0.00 in
20:43 59.6 °F 55.1 °F 30.15 in Calm     85 % 0.00 in
20:48 59.5 °F 55.0 °F 30.15 in Calm     85 % 0.00 in
20:51 59.5 °F 55.0 °F 30.15 in Calm     85 % 0.00 in
20:56 59.7 °F 55.2 °F 30.15 in Calm     85 % 0.00 in
21:01 59.7 °F 55.2 °F 30.16 in Calm     85 % 0.00 in
21:03 59.7 °F 55.2 °F 30.16 in Calm     85 % 0.00 in
21:04 59.7 °F 55.2 °F 30.16 in Calm     85 % 0.00 in
21:09 59.6 °F 54.8 °F 30.16 in Calm     84 % 0.00 in
21:14 59.6 °F 55.1 °F 30.16 in Calm     85 % 0.00 in
21:15 59.6 °F 55.1 °F 30.16 in Calm     85 % 0.00 in
21:20 59.8 °F 55.3 °F 30.17 in Calm     85 % 0.00 in
21:25 59.8 °F 55.0 °F 30.17 in Calm     84 % 0.00 in
21:28 59.7 °F 54.9 °F 30.18 in Calm     84 % 0.00 in
21:33 59.2 °F 54.7 °F 30.18 in Calm     85 % 0.00 in
21:38 59.0 °F 54.8 °F 30.19 in Calm     86 % 0.00 in
21:41 58.9 °F 54.7 °F 30.19 in SE 1.2 mph   86 % 0.00 in
21:46 58.7 °F 54.8 °F 30.19 in Calm     87 % 0.00 in
21:51 58.5 °F 54.6 °F 30.19 in Calm     87 % 0.00 in
21:56 58.2 °F 54.3 °F 30.20 in Calm     87 % 0.00 in
22:01 58.1 °F 54.6 °F 30.20 in SE 1.2 mph 1.2 mph 88 % 0.00 in
22:04 58.1 °F 54.6 °F 30.20 in SE 1.2 mph 1.2 mph 88 % 0.00 in
22:09 58.2 °F 54.7 °F 30.20 in Calm     88 % 0.00 in
22:12 58.2 °F 54.7 °F 30.20 in Calm     88 % 0.00 in
22:18 58.1 °F 54.6 °F 30.20 in Calm     88 % 0.00 in
22:22 58.0 °F 54.5 °F 30.20 in Calm     88 % 0.00 in
22:28 58.0 °F 54.8 °F 30.20 in Calm     89 % 0.00 in
22:31 57.9 °F 54.7 °F 30.20 in Calm     89 % 0.00 in
22:36 57.9 °F 54.7 °F 30.20 in Calm     89 % 0.00 in
22:38 57.9 °F 54.7 °F 30.20 in Calm     89 % 0.00 in
22:46 57.7 °F 54.5 °F 30.20 in Calm     89 % 0.00 in
22:48 57.7 °F 54.5 °F 30.20 in Calm     89 % 0.00 in
22:53 57.8 °F 54.6 °F 30.20 in Calm     89 % 0.00 in
22:58 57.8 °F 54.6 °F 30.20 in Calm     89 % 0.00 in
23:03 57.8 °F 54.6 °F 30.20 in Calm     89 % 0.00 in
23:05 57.7 °F 54.5 °F 30.20 in Calm     89 % 0.00 in
23:10 57.6 °F 54.4 °F 30.20 in Calm     89 % 0.00 in
23:15 57.6 °F 54.4 °F 30.20 in Calm     89 % 0.00 in
23:20 57.6 °F 54.4 °F 30.20 in Calm     89 % 0.00 in
23:25 57.5 °F 54.3 °F 30.20 in Calm     89 % 0.00 in
23:26 57.5 °F 54.3 °F 30.20 in Calm     89 % 0.00 in
23:32 57.6 °F 54.4 °F 30.19 in Calm     89 % 0.00 in
23:37 57.7 °F 54.5 °F 30.19 in Calm     89 % 0.00 in
23:42 57.7 °F 54.5 °F 30.19 in Calm     89 % 0.00 in
23:47 57.8 °F 54.6 °F 30.19 in Calm     89 % 0.00 in
23:49 57.9 °F 54.4 °F 30.19 in Calm     88 % 0.00 in
23:54 58.3 °F 54.8 °F 30.19 in Calm     88 % 0.00 in
23:59 58.5 °F 54.6 °F 30.18 in Calm     87 % 0.00 in
Park Place, Exeter, Tulare County, California, USA
Compliments of Weather Underground - 3 mb